createdAt,value
2022-08-18T00:00:02.725Z,100024.01
2022-08-18T00:03:27.195Z,100013.14
2022-08-18T00:06:18.106Z,100012.33
2022-08-18T00:09:08.247Z,100010.71
2022-08-18T00:11:56.311Z,100009.61
2022-08-18T00:14:45.658Z,100014.25
2022-08-18T00:17:34.889Z,100014.25
2022-08-18T00:20:24.336Z,100012.33
2022-08-18T00:23:13.157Z,100015.64
2022-08-18T00:26:03.416Z,100015.12
2022-08-18T00:28:51.676Z,100012.73
2022-08-18T00:31:41.798Z,100021.98
2022-08-18T00:34:30.429Z,100016.05
2022-08-18T00:37:21.264Z,100020.66
2022-08-18T00:40:13.827Z,100020.46
2022-08-18T00:43:04.645Z,100018.34
2022-08-18T00:45:53.004Z,100018.62
2022-08-18T00:48:41.446Z,100020.84
2022-08-18T00:51:43.497Z,100034.72
2022-08-18T00:54:35.283Z,100033.39
2022-08-18T00:57:25.500Z,100031.27
2022-08-18T01:00:15.597Z,100033.98
2022-08-18T01:03:07.524Z,100038.91
2022-08-18T01:05:59.903Z,100035.69
2022-08-18T01:08:48.644Z,100033.56
2022-08-18T01:11:37.865Z,100035.48
2022-08-18T01:14:26.642Z,100045.02
2022-08-18T01:17:32.740Z,100042.10
2022-08-18T01:20:45.856Z,100043.80
2022-08-18T01:23:35.926Z,100040.03
2022-08-18T01:26:27.111Z,100043.84
2022-08-18T01:29:19.162Z,100043.11
2022-08-18T01:32:07.837Z,100039.09
2022-08-18T01:34:56.120Z,100045.08
2022-08-18T01:37:44.649Z,100051.41
2022-08-18T01:41:21.762Z,100050.06
2022-08-18T01:43:41.701Z,100048.77
2022-08-18T01:46:31.774Z,100048.53
2022-08-18T01:49:20.414Z,100049.94
2022-08-18T01:52:09.035Z,100056.23
2022-08-18T01:54:58.590Z,100053.31
2022-08-18T01:57:46.947Z,100054.17
2022-08-18T02:00:36.094Z,100057.77
2022-08-18T02:03:26.572Z,100058.95
2022-08-18T02:06:18.113Z,100060.63
2022-08-18T02:09:23.779Z,100059.87
2022-08-18T02:12:13.675Z,100066.17
2022-08-18T02:15:02.265Z,100056.19
2022-08-18T02:17:51.196Z,100060.55
2022-08-18T02:20:40.647Z,100062.23
2022-08-18T02:23:28.887Z,100065.23
2022-08-18T02:26:19.087Z,100066.09
2022-08-18T02:29:07.762Z,100061.03
2022-08-18T02:31:56.046Z,100068.13
2022-08-18T02:34:44.381Z,100062.77
2022-08-18T02:37:33.167Z,100063.34
2022-08-18T02:40:21.762Z,100061.21
2022-08-18T02:43:09.979Z,100062.58
2022-08-18T02:45:58.704Z,100063.97
2022-08-18T02:48:47.932Z,100070.76
2022-08-18T02:51:36.782Z,100064.30
2022-08-18T02:54:26.072Z,100073.00
2022-08-18T02:57:14.375Z,100069.25
2022-08-18T03:00:02.670Z,100073.34
2022-08-18T03:02:52.940Z,100072.83
2022-08-18T03:05:41.371Z,100069.08
2022-08-18T03:08:30.536Z,100068.55
2022-08-18T03:11:22.346Z,100073.72
2022-08-18T03:14:11.164Z,100089.22
2022-08-18T03:17:00.002Z,100096.34
2022-08-18T03:19:48.508Z,100098.01
2022-08-18T03:22:41.095Z,100101.28
2022-08-18T03:25:30.017Z,100103.46
2022-08-18T03:28:19.207Z,100103.20
2022-08-18T03:31:07.977Z,100103.50
2022-08-18T03:33:59.346Z,100108.91
2022-08-18T03:36:49.421Z,100109.17
2022-08-18T03:39:37.559Z,100111.88
2022-08-18T03:42:25.878Z,100116.50
2022-08-18T03:45:18.000Z,100120.83
2022-08-18T03:48:06.909Z,100112.98
2022-08-18T03:50:55.166Z,100112.98
2022-08-18T03:53:43.763Z,100112.18
2022-08-18T03:56:34.681Z,100105.95
2022-08-18T03:59:26.432Z,100109.48
2022-08-18T04:02:14.904Z,100115.98
2022-08-18T04:05:03.359Z,100107.86
2022-08-18T04:07:53.853Z,100119.48
2022-08-18T04:10:45.116Z,100124.89
2022-08-18T04:13:35.740Z,100139.25
2022-08-18T04:16:23.699Z,100136.54
2022-08-18T04:19:13.182Z,100141.13
2022-08-18T04:22:03.040Z,100135.72
2022-08-18T04:24:51.815Z,100142.75
2022-08-18T04:27:42.302Z,100146.27
2022-08-18T04:30:31.786Z,100153.83
2022-08-18T04:33:20.695Z,100148.13
2022-08-18T04:36:12.541Z,100152.70
2022-08-18T04:39:09.581Z,100151.84
2022-08-18T04:42:00.982Z,100149.93
2022-08-18T04:44:50.809Z,100147.19
2022-08-18T04:47:41.447Z,100152.86
2022-08-18T04:50:29.760Z,100143.90
2022-08-18T04:53:36.093Z,100134.91
2022-08-18T04:56:26.340Z,100141.33
2022-08-18T04:59:15.422Z,100138.01
2022-08-18T05:02:11.416Z,100145.52
2022-08-18T05:05:03.527Z,100131.08
2022-08-18T05:07:51.549Z,100127.74
2022-08-18T05:10:40.909Z,100130.34
2022-08-18T05:13:29.944Z,100130.51
2022-08-18T05:16:27.551Z,100128.02
2022-08-18T05:19:22.037Z,100127.59
2022-08-18T05:22:17.542Z,100129.91
2022-08-18T05:25:09.916Z,100130.05
2022-08-18T05:27:57.807Z,100129.64
2022-08-18T05:30:46.056Z,100129.50
2022-08-18T05:33:34.508Z,100145.64
2022-08-18T05:36:35.987Z,100150.67
2022-08-18T05:39:29.098Z,100150.52
2022-08-18T05:42:21.506Z,100148.45
2022-08-18T05:45:15.537Z,100152.61
2022-08-18T05:48:03.832Z,100156.78
2022-08-18T05:50:53.921Z,100155.00
2022-08-18T05:54:01.544Z,100164.03
2022-08-18T05:56:53.418Z,100154.59
2022-08-18T05:59:43.566Z,100165.00
2022-08-18T06:02:37.861Z,100165.60
2022-08-18T06:05:31.495Z,100167.02
2022-08-18T06:08:25.006Z,100169.26
2022-08-18T06:11:17.174Z,100153.53
2022-08-18T06:14:11.073Z,100158.00
2022-08-18T06:17:08.116Z,100162.91
2022-08-18T06:20:04.071Z,100162.41
2022-08-18T06:22:58.677Z,100154.52
2022-08-18T06:25:57.604Z,100157.69
2022-08-18T06:29:06.916Z,100164.25
2022-08-18T06:32:09.665Z,100157.62
2022-08-18T06:35:10.024Z,100165.75
2022-08-18T06:38:27.476Z,100165.38
2022-08-18T06:41:43.303Z,100160.48
2022-08-18T06:44:33.610Z,100159.63
2022-08-18T06:47:34.676Z,100169.00
2022-08-18T06:50:27.272Z,100166.98
2022-08-18T06:53:26.834Z,100165.25
2022-08-18T06:56:25.856Z,100164.81
2022-08-18T06:59:19.312Z,100155.42
2022-08-18T07:02:24.179Z,100159.47
2022-08-18T07:05:22.866Z,100157.22
2022-08-18T07:08:35.366Z,100160.12
2022-08-18T07:11:26.636Z,100159.98
2022-08-18T07:14:20.889Z,100159.69
2022-08-18T07:17:12.820Z,100170.28
2022-08-18T07:20:09.030Z,100170.59
2022-08-18T07:23:00.979Z,100166.23
2022-08-18T07:25:58.669Z,100163.03
2022-08-18T07:28:49.281Z,100165.25
2022-08-18T07:31:43.706Z,100170.55
2022-08-18T07:34:40.204Z,100171.50
2022-08-18T07:37:33.261Z,100166.52
2022-08-18T07:40:27.743Z,100169.41
2022-08-18T07:43:22.164Z,100164.59
2022-08-18T07:46:21.477Z,100157.50
2022-08-18T07:49:10.450Z,100162.92
2022-08-18T07:52:04.371Z,100158.09
2022-08-18T07:55:02.250Z,100163.99
2022-08-18T07:57:58.367Z,100164.44
2022-08-18T08:00:59.147Z,100168.75
2022-08-18T08:03:59.300Z,100168.72
2022-08-18T08:07:22.744Z,100173.34
2022-08-18T08:10:34.704Z,100171.83
2022-08-18T08:13:53.962Z,100163.70
2022-08-18T08:16:48.563Z,100172.61
2022-08-18T08:20:14.536Z,100169.61
2022-08-18T08:23:16.874Z,100161.92
2022-08-18T08:26:24.521Z,100171.12
2022-08-18T08:29:24.308Z,100173.58
2022-08-18T08:32:21.591Z,100166.80
2022-08-18T08:35:47.323Z,100158.38
2022-08-18T08:38:45.041Z,100164.45
2022-08-18T08:41:40.129Z,100160.11
2022-08-18T08:44:34.222Z,100162.87
2022-08-18T08:47:29.686Z,100162.41
2022-08-18T08:50:22.081Z,100166.20
2022-08-18T08:53:18.191Z,100168.71
2022-08-18T08:56:10.338Z,100172.24
2022-08-18T08:59:01.867Z,100171.09
2022-08-18T09:02:03.409Z,100167.20
2022-08-18T09:05:08.441Z,100170.41
2022-08-18T09:08:20.309Z,100168.57
2022-08-18T09:11:39.644Z,100171.44
2022-08-18T09:14:47.641Z,100176.12
2022-08-18T09:18:01.803Z,100176.81
2022-08-18T09:21:00.468Z,100179.00
2022-08-18T09:23:51.958Z,100184.38
2022-08-18T09:26:46.582Z,100175.58
2022-08-18T09:29:52.223Z,100177.41
2022-08-18T09:33:18.448Z,100176.95
2022-08-18T09:36:25.721Z,100175.91
2022-08-18T09:39:47.979Z,100166.67
2022-08-18T09:42:59.805Z,100166.44
2022-08-18T09:45:59.235Z,100164.22
2022-08-18T09:48:47.204Z,100170.52
2022-08-18T09:51:40.117Z,100171.99
2022-08-18T09:54:31.402Z,100173.95
2022-08-18T09:57:26.589Z,100169.94
2022-08-18T10:00:30.955Z,100169.61
2022-08-18T10:03:26.394Z,100169.25
2022-08-18T10:06:27.642Z,100167.65
2022-08-18T10:09:36.862Z,100165.27
2022-08-18T10:12:51.050Z,100157.81
2022-08-18T10:16:10.416Z,100162.84
2022-08-18T10:19:10.653Z,100155.75
2022-08-18T10:22:10.657Z,100159.31
2022-08-18T10:25:09.147Z,100156.57
2022-08-18T10:28:09.599Z,100146.05
2022-08-18T10:31:10.063Z,100137.01
2022-08-18T10:34:16.021Z,100144.45
2022-08-18T10:37:13.739Z,100144.91
2022-08-18T10:40:21.333Z,100139.06
2022-08-18T10:46:31.967Z,100124.92
2022-08-18T10:53:17.103Z,100116.33
2022-08-18T10:56:09.317Z,100107.37
2022-08-18T10:59:17.063Z,100109.27
2022-08-18T11:02:34.702Z,100099.66
2022-08-18T11:05:27.647Z,100090.03
2022-08-18T11:08:24.402Z,100099.25
2022-08-18T11:11:34.513Z,100093.05
2022-08-18T11:15:22.710Z,100094.73
2022-08-18T11:18:28.445Z,100087.40
2022-08-18T11:21:31.476Z,100088.17
2022-08-18T11:24:21.605Z,100082.27
2022-08-18T11:27:20.455Z,100079.13
2022-08-18T11:30:12.122Z,100077.12
2022-08-18T11:33:02.825Z,100079.00
2022-08-18T11:35:57.109Z,100070.66
2022-08-18T11:38:56.042Z,100072.05
2022-08-18T11:41:50.277Z,100071.50
2022-08-18T11:44:39.811Z,100070.77
2022-08-18T11:47:30.078Z,100057.53
2022-08-18T11:50:28.841Z,100056.30
2022-08-18T11:53:24.769Z,100050.66
2022-08-18T11:56:31.358Z,100041.47
2022-08-18T11:59:53.091Z,100041.77
2022-08-18T12:02:42.545Z,100036.91
2022-08-18T12:05:45.901Z,100031.20
2022-08-18T12:08:58.819Z,100027.50
2022-08-18T12:11:54.057Z,100021.38
2022-08-18T12:15:02.981Z,100017.91
2022-08-18T12:18:00.446Z,100018.33
2022-08-18T12:23:58.384Z,100022.27
2022-08-18T12:26:47.570Z,100017.49
2022-08-18T12:29:43.271Z,100024.95
2022-08-18T12:35:44.178Z,100015.28
2022-08-18T12:38:33.449Z,100011.34
2022-08-18T12:41:24.547Z,100001.52
2022-08-18T12:44:13.564Z,100000.77
2022-08-18T12:47:05.274Z,99994.84
2022-08-18T12:49:55.080Z,100003.13
2022-08-18T12:52:50.370Z,99999.20
2022-08-18T12:55:44.233Z,99997.68
2022-08-18T12:58:36.333Z,99994.63
2022-08-18T13:01:27.104Z,99997.41
2022-08-18T13:04:18.577Z,99996.30
2022-08-18T13:07:07.432Z,100003.06
2022-08-18T13:09:55.879Z,99997.89
2022-08-18T13:12:43.941Z,99994.45
2022-08-18T13:15:32.832Z,100002.80
2022-08-18T13:18:20.918Z,99996.94
2022-08-18T13:21:17.845Z,100002.18
2022-08-18T13:24:06.831Z,99994.34
2022-08-18T13:26:58.086Z,99987.32
2022-08-18T13:29:46.075Z,99982.64
2022-08-18T13:32:47.017Z,99972.93
2022-08-18T13:35:44.493Z,99962.21
2022-08-18T13:38:32.929Z,99969.76
2022-08-18T13:41:23.631Z,99968.27
2022-08-18T13:44:18.995Z,99965.95
2022-08-18T13:47:07.901Z,99961.68
2022-08-18T13:49:58.493Z,99964.49
2022-08-18T13:52:46.629Z,99968.45
2022-08-18T13:55:36.386Z,99978.69
2022-08-18T13:58:24.930Z,99958.52
2022-08-18T14:01:42.061Z,99963.69
2022-08-18T14:04:27.888Z,99955.75
2022-08-18T14:07:19.065Z,99955.30
2022-08-18T14:10:14.924Z,99951.36
2022-08-18T14:13:18.506Z,99947.78
2022-08-18T14:16:10.506Z,99948.59
2022-08-18T14:19:17.724Z,99944.68
2022-08-18T14:22:30.195Z,99954.16
2022-08-18T14:25:37.120Z,99948.59
2022-08-18T14:28:28.131Z,99952.89
2022-08-18T14:31:20.561Z,99951.67
2022-08-18T14:34:11.635Z,99947.72
2022-08-18T14:36:59.868Z,99948.45
2022-08-18T14:39:50.443Z,99957.50
2022-08-18T14:42:54.316Z,99957.91
2022-08-18T14:45:47.004Z,99957.52
2022-08-18T14:48:37.336Z,99954.75
2022-08-18T14:51:27.108Z,99949.58
2022-08-18T14:54:18.024Z,99952.70
2022-08-18T14:57:09.396Z,99955.45
2022-08-18T14:59:57.642Z,99944.74
2022-08-18T15:02:48.983Z,99942.33
2022-08-18T15:05:37.784Z,99945.42
2022-08-18T15:08:32.191Z,99945.31
2022-08-18T15:11:23.925Z,99952.75
2022-08-18T15:14:12.000Z,99947.18
2022-08-18T15:17:00.433Z,99938.05
2022-08-18T15:19:58.683Z,99946.67
2022-08-18T15:23:06.134Z,99949.36
2022-08-18T15:25:54.528Z,99946.86
2022-08-18T15:28:42.626Z,99953.89
2022-08-18T15:31:50.243Z,99950.72
2022-08-18T15:34:47.403Z,99952.23
2022-08-18T15:37:47.594Z,99953.79
2022-08-18T15:40:47.207Z,99960.42
2022-08-18T15:43:45.995Z,99950.47
2022-08-18T15:46:37.259Z,99953.53
2022-08-18T15:49:25.404Z,99960.13
2022-08-18T15:52:15.209Z,99955.66
2022-08-18T15:55:08.178Z,99957.90
2022-08-18T15:57:58.810Z,99964.06
2022-08-18T16:00:48.437Z,99969.84
2022-08-18T16:03:36.602Z,99964.21
2022-08-18T16:06:27.608Z,99968.03
2022-08-18T16:09:20.300Z,99973.77
2022-08-18T16:12:10.609Z,99983.78
2022-08-18T16:14:59.055Z,99991.81
2022-08-18T16:17:48.053Z,99994.31
2022-08-18T16:20:37.271Z,99993.29
2022-08-18T16:23:25.368Z,99989.54
2022-08-18T16:29:08.778Z,99992.75
2022-08-18T16:31:57.029Z,99993.77
2022-08-18T16:34:45.499Z,100005.33
2022-08-18T16:37:34.029Z,100002.72
2022-08-18T16:40:22.955Z,100010.82
2022-08-18T16:43:16.977Z,100016.95
2022-08-18T16:46:09.398Z,100023.45
2022-08-18T16:48:58.825Z,100021.98
2022-08-18T16:51:47.462Z,100028.81
2022-08-18T16:54:35.742Z,100034.93
2022-08-18T16:57:53.227Z,100039.03
2022-08-18T17:01:07.809Z,100043.03
2022-08-18T17:04:13.806Z,100048.24
2022-08-18T17:07:09.360Z,100051.93
2022-08-18T17:09:58.121Z,100051.74
2022-08-18T17:12:46.328Z,100049.63
2022-08-18T17:15:34.764Z,100046.69
2022-08-18T17:18:23.839Z,100042.48
2022-08-18T17:21:14.362Z,100054.34
2022-08-18T17:24:05.920Z,100048.17
2022-08-18T17:27:01.909Z,100053.44
2022-08-18T17:30:04.857Z,100055.20
2022-08-18T17:33:01.532Z,100057.28
2022-08-18T17:35:49.744Z,100064.49
2022-08-18T17:38:44.848Z,100064.98
2022-08-18T17:41:53.528Z,100067.05
2022-08-18T17:44:52.023Z,100074.58
2022-08-18T17:47:55.493Z,100078.60
2022-08-18T17:51:06.707Z,100083.73
2022-08-18T17:53:53.946Z,100086.15
2022-08-18T17:56:49.134Z,100084.19
2022-08-18T17:59:51.316Z,100086.91
2022-08-18T18:02:41.240Z,100091.66
2022-08-18T18:05:36.434Z,100101.45
2022-08-18T18:08:56.126Z,100093.66
2022-08-18T18:11:46.983Z,100101.52
2022-08-18T18:14:38.303Z,100108.67
2022-08-18T18:17:29.146Z,100109.55
2022-08-18T18:20:25.305Z,100103.67
2022-08-18T18:23:18.837Z,100093.59
2022-08-18T18:26:27.817Z,100101.86
2022-08-18T18:29:20.234Z,100106.59
2022-08-18T18:32:24.632Z,100105.07
2022-08-18T18:35:16.260Z,100097.72
2022-08-18T18:38:23.776Z,100111.76
2022-08-18T18:41:26.247Z,100108.59
2022-08-18T18:44:15.806Z,100117.95
2022-08-18T18:47:18.711Z,100123.14
2022-08-18T18:50:13.963Z,100131.06
2022-08-18T18:53:17.158Z,100127.55
2022-08-18T18:56:17.190Z,100137.41
2022-08-18T18:59:17.861Z,100136.61
2022-08-18T19:02:33.757Z,100135.83
2022-08-18T19:05:33.644Z,100130.70
2022-08-18T19:08:35.489Z,100142.13
2022-08-18T19:11:29.136Z,100148.87
2022-08-18T19:14:22.052Z,100143.92
2022-08-18T19:17:18.133Z,100144.57
2022-08-18T19:20:11.549Z,100142.31
2022-08-18T19:23:04.343Z,100141.34
2022-08-18T19:25:56.975Z,100142.33
2022-08-18T19:29:12.815Z,100138.13
2022-08-18T19:32:04.493Z,100146.48
2022-08-18T19:34:55.905Z,100146.16
2022-08-18T19:38:18.172Z,100142.77
2022-08-18T19:41:19.900Z,100152.58
2022-08-18T19:44:19.041Z,100141.81
2022-08-18T19:47:15.659Z,100141.96
2022-08-18T19:50:13.219Z,100138.56
2022-08-18T19:53:22.537Z,100139.54
2022-08-18T19:56:33.932Z,100135.66
2022-08-18T19:59:35.122Z,100131.44
2022-08-18T20:02:43.708Z,100128.37
2022-08-18T20:05:40.207Z,100123.06
2022-08-18T20:08:59.217Z,100133.00
2022-08-18T20:12:12.860Z,100132.36
2022-08-18T20:15:07.527Z,100123.50
2022-08-18T20:18:07.284Z,100128.80
2022-08-18T20:21:41.577Z,100138.41
2022-08-18T20:24:50.440Z,100132.30
2022-08-18T20:27:40.751Z,100133.23
2022-08-18T20:30:32.141Z,100139.31
2022-08-18T20:33:30.904Z,100139.94
2022-08-18T20:36:28.681Z,100124.84
2022-08-18T20:39:41.819Z,100127.40
2022-08-18T20:42:55.951Z,100123.69
2022-08-18T20:46:10.961Z,100121.86
2022-08-18T20:49:12.437Z,100121.70
2022-08-18T20:52:11.182Z,100125.34
2022-08-18T20:55:11.595Z,100126.59
2022-08-18T20:58:08.256Z,100128.04
2022-08-18T21:01:01.038Z,100134.73
2022-08-18T21:03:49.821Z,100130.00
2022-08-18T21:06:44.015Z,100130.13
2022-08-18T21:09:32.473Z,100131.38
2022-08-18T21:12:25.930Z,100124.94
2022-08-18T21:15:14.583Z,100127.29
2022-08-18T21:18:05.122Z,100125.80
2022-08-18T21:20:55.172Z,100122.99
2022-08-18T21:23:50.755Z,100126.45
2022-08-18T21:26:39.869Z,100120.62
2022-08-18T21:29:47.083Z,100125.37
2022-08-18T21:32:39.151Z,100117.64
2022-08-18T21:35:30.948Z,100117.75
2022-08-18T21:38:27.869Z,100125.53
2022-08-18T21:41:19.207Z,100124.82
2022-08-18T21:44:20.315Z,100121.70
2022-08-18T21:47:19.101Z,100129.48
2022-08-18T21:50:15.585Z,100131.77
2022-08-18T21:53:16.038Z,100134.59
2022-08-18T21:56:04.632Z,100133.91
2022-08-18T21:59:06.598Z,100136.22
2022-08-18T22:01:57.158Z,100144.77
2022-08-18T22:04:48.229Z,100145.69
2022-08-18T22:07:36.580Z,100144.95
2022-08-18T22:10:46.158Z,100144.27
2022-08-18T22:13:58.648Z,100148.97
2022-08-18T22:16:47.321Z,100145.56
2022-08-18T22:19:35.847Z,100146.44
2022-08-18T22:22:42.387Z,100145.73
2022-08-18T22:25:31.268Z,100149.65
2022-08-18T22:28:24.126Z,100152.11
2022-08-18T22:31:20.479Z,100143.26
2022-08-18T22:34:10.822Z,100140.62
2022-08-18T22:37:00.970Z,100136.89
2022-08-18T22:39:53.732Z,100128.32
2022-08-18T22:42:42.305Z,100126.48
2022-08-18T22:45:31.077Z,100124.36
2022-08-18T22:48:19.729Z,100124.95
2022-08-18T22:51:08.426Z,100127.47
2022-08-18T22:53:57.181Z,100135.37
2022-08-18T22:56:56.323Z,100137.07
2022-08-18T22:59:46.792Z,100138.48
2022-08-18T23:02:35.081Z,100142.58
2022-08-18T23:05:23.886Z,100142.37
2022-08-18T23:08:12.296Z,100151.11
2022-08-18T23:11:00.526Z,100141.94
2022-08-18T23:13:48.475Z,100149.85
2022-08-18T23:16:36.673Z,100140.68
2022-08-18T23:19:25.846Z,100136.91
2022-08-18T23:22:14.285Z,100138.59
2022-08-18T23:25:09.328Z,100142.48
2022-08-18T23:27:59.487Z,100136.54
2022-08-18T23:30:49.478Z,100132.80
2022-08-18T23:33:37.272Z,100128.75
2022-08-18T23:36:25.799Z,100128.53
2022-08-18T23:39:14.250Z,100127.51
2022-08-18T23:42:03.858Z,100133.52
2022-08-18T23:44:52.825Z,100130.56
2022-08-18T23:47:42.880Z,100126.03
2022-08-18T23:50:32.375Z,100130.11
2022-08-18T23:53:20.778Z,100134.50
2022-08-18T23:56:09.396Z,100125.33
2022-08-18T23:58:59.361Z,100132.44
